Página principal
METAR-TAF:

METAR-TAF

Aeroportos :

Pequim, China

Aeroporto Internacional de Pequim

latitude: 39-56N, longitude: 116-17E, altura: 55 m

Observação actual do tempo

O boletim foi feito há 44 minutos, às 06:30 UTC
Vento 17 kt de nor-noroeste com rajadas de 27 kt, variando entre oeste e norte
Temperatura 30°C
Humidade 6%
Pressão 1010 hPa
Visibilidade 10 km ou mais
sem nuvens abaixo de 1500 metros e sem cumulonimbus

METAR: ZBAA 270630Z 33009G14MPS 260V360 CAVOK 30/M11 Q1010 NOSIG

Hora: 15:14 (07:14 UTC)

Previsão

O boletim foi feito há 3 horas e 54 minutos, às 03:20 UTC
Previsão válida de 27 às 06 UTC a 28 às 06 UTC
Vento 14 kt de noroeste com rajadas de 23 kt
Visibilidade 10 km ou mais
sem nuvens abaixo de 1500 metros e sem cumulonimbus

TAF: ZBAA 270320Z 2706/2806 31007G12MPS CAVOK TX28/2707Z TN12/2722Z

Observações e previsões do tempo de mais de 4000 aeroportos (mensagens METAR e TAF).

As estações disponíveis são os pontos amarelos e vermelhos sobre o mapa.

Mova o rato sobre o mapa para ver o nome da estação.

Depois clique no ponto para visualizar as observações e previsões meteorológicas.

Para alterar o mapa : clique nos botões verdes com uma cruz preta para aumentar o zoom; no botão verde com uma pitada de zoom; ou nas setas verdes para mapas adjacentes.


METAR-TAF: